Date,TemperatureHighF,TemperatureAvgF,TemperatureLowF,DewpointHighF,DewpointAvgF,DewpointLowF,HumidityHigh,HumidityAvg,HumidityLow,PressureMaxIn,PressureMinIn,WindSpeedMaxMPH,WindSpeedAvgMPH,GustSpeedMaxMPH,PrecipitationSumIn
2013-6-1,71,67,64,65,63,61,91,88,81,29.85,29.77,13,4,0,0.00
2013-6-2,67,65,64,63,62,60,94,90,84,29.84,29.76,5,2,0,0.00
2013-6-3,70,66,64,63,61,60,90,85,77,29.89,29.79,6,2,0,0.00
2013-6-4,71,66,64,63,60,59,87,82,72,29.95,29.87,14,4,0,0.00
2013-6-5,70,66,63,62,60,59,90,83,73,29.99,29.90,16,4,0,0.00
2013-6-6,69,64,61,62,60,58,90,87,79,29.94,29.88,11,3,0,0.00
2013-6-7,69,64,61,63,60,58,92,89,81,29.91,29.80,11,2,0,0.00
2013-6-8,66,63,62,62,60,59,94,91,85,29.90,29.78,6,1,0,0.00
2013-6-9,67,64,62,62,60,58,93,89,82,29.93,29.87,10,2,0,0.00
2013-6-10,72,66,62,62,60,58,90,81,68,29.95,29.88,13,3,0,0.00
2013-6-11,71,66,60,65,62,57,93,88,82,29.93,29.88,6,3,0,0.00
2013-6-12,69,65,63,64,62,61,93,88,81,30.02,29.92,11,3,0,0.00
2013-6-13,71,66,64,63,62,60,90,85,75,30.01,29.90,12,4,0,0.00
2013-6-14,68,65,62,62,60,58,90,86,78,29.92,29.86,6,2,0,0.00
2013-6-15,69,65,62,61,59,57,88,82,73,29.97,29.89,11,3,0,0.00
2013-6-16,71,66,63,62,60,58,91,81,70,30.02,29.94,15,4,0,0.00
2013-6-17,70,66,63,63,62,60,92,88,78,29.98,29.88,13,4,0,0.00
2013-6-18,70,65,63,64,62,60,93,89,80,29.92,29.84,12,2,0,0.00
2013-6-19,72,67,64,65,62,59,91,84,75,29.86,29.79,14,5,0,0.00
2013-6-20,71,66,63,65,62,61,93,89,80,29.86,29.78,10,2,0,0.00
2013-6-22,70,67,65,63,62,61,89,84,77,29.91,29.82,7,3,0,0.00
2013-6-23,70,66,64,63,61,59,90,84,77,29.88,29.81,13,3,0,0.00
2013-6-24,70,66,63,64,62,59,95,88,80,29.94,29.82,12,3,0,0.01
2013-6-25,70,67,64,65,64,61,94,89,83,29.99,29.89,13,5,0,0.00
2013-6-26,70,67,65,66,65,63,95,92,86,29.98,29.89,12,3,0,0.01
2013-6-27,71,67,65,67,65,64,97,94,86,30.02,29.96,8,2,0,0.00
2013-6-28,71,68,65,68,66,64,99,94,86,29.99,29.86,13,3,0,0.00
2013-6-29,72,69,66,69,67,65,98,94,88,29.88,29.73,18,3,0,0.00
2013-6-30,75,70,66,72,68,65,97,93,89,29.81,29.70,12,2,0,0.00